Time;durP1;ratioP1;P1;durP2;ratioP2;P2;SDS_P1;SDS_P2;PMS_P1;PMS_P2;Temp;Humidity;BMP_temperature;BMP_pressure;BME280_temperature;BME280_humidity;BME280_pressure;Samples;Min_cycle;Max_cycle;Signal;HPM_P1;HPM_P2
2022/07/07 00:02:20;;;;;;;3.60;3.28;;;24.80;71.60;;;;;;5097506;28;20023;-60
2022/07/07 00:04:46;;;;;;;4.18;3.78;;;24.70;71.70;;;;;;5100476;28;20042;-60
2022/07/07 00:07:12;;;;;;;5.03;3.92;;;24.70;72.00;;;;;;5099277;28;20115;-60
2022/07/07 00:09:37;;;;;;;4.75;3.80;;;24.70;72.30;;;;;;5096636;28;20036;-60
2022/07/07 00:12:03;;;;;;;4.70;3.95;;;24.80;72.30;;;;;;5108110;28;20102;-60
2022/07/07 00:14:29;;;;;;;3.95;3.42;;;24.70;72.50;;;;;;5108443;28;20034;-60
2022/07/07 00:16:56;;;;;;;4.30;3.55;;;24.70;72.70;;;;;;5104671;28;20442;-60
2022/07/07 00:19:23;;;;;;;4.65;3.78;;;24.70;73.00;;;;;;5106859;28;20116;-60
2022/07/07 00:21:48;;;;;;;4.53;4.13;;;24.70;73.10;;;;;;5099951;28;20540;-60
2022/07/07 00:24:14;;;;;;;4.15;3.75;;;24.70;73.30;;;;;;5102450;28;20039;-60
2022/07/07 00:26:40;;;;;;;4.75;4.05;;;24.60;73.40;;;;;;5099368;28;20114;-60
2022/07/07 00:29:06;;;;;;;3.92;3.50;;;24.60;73.90;;;;;;5101726;28;20048;-60
2022/07/07 00:31:32;;;;;;;4.05;3.50;;;24.60;74.00;;;;;;5105842;28;20051;-60
2022/07/07 00:33:58;;;;;;;4.25;3.80;;;24.60;74.10;;;;;;5098356;28;20028;-60
2022/07/07 00:36:24;;;;;;;4.18;3.42;;;24.60;74.20;;;;;;5102653;28;20471;-60
2022/07/07 00:38:49;;;;;;;4.72;3.72;;;24.60;74.20;;;;;;5098006;28;20028;-60
2022/07/07 00:41:15;;;;;;;4.32;3.85;;;24.50;74.10;;;;;;5094512;28;20069;-60
2022/07/07 00:43:43;;;;;;;4.72;3.97;;;24.50;74.30;;;;;;5102961;27;20039;-60
2022/07/07 00:46:09;;;;;;;4.68;3.60;;;24.50;74.50;;;;;;5100760;27;20020;-60
2022/07/07 00:48:37;;;;;;;4.35;3.95;;;24.40;74.80;;;;;;5102220;27;20043;-60
2022/07/07 00:51:11;;;;;;;4.53;3.80;;;24.40;75.10;;;;;;5111842;27;20058;-60
2022/07/07 00:53:38;;;;;;;4.75;4.03;;;24.40;75.40;;;;;;5099994;27;20024;-60
2022/07/07 00:56:04;;;;;;;3.95;3.55;;;24.30;75.40;;;;;;5097800;28;20024;-60
2022/07/07 00:58:30;;;;;;;4.85;4.20;;;24.30;75.60;;;;;;5102709;28;20420;-60
2022/07/07 01:00:56;;;;;;;5.00;4.50;;;24.20;76.10;;;;;;5103109;27;20027;-60
2022/07/07 01:03:21;;;;;;;4.70;4.30;;;24.20;76.40;;;;;;5105669;27;20383;-60
2022/07/07 01:05:48;;;;;;;5.43;4.43;;;24.20;76.60;;;;;;5109945;27;20026;-60
2022/07/07 01:08:15;;;;;;;5.22;4.40;;;24.10;77.10;;;;;;5104194;27;20081;-60
2022/07/07 01:10:42;;;;;;;5.15;4.60;;;24.10;77.50;;;;;;5104550;27;20027;-60
2022/07/07 01:13:07;;;;;;;4.88;4.22;;;24.00;77.50;;;;;;5112173;27;20034;-60
2022/07/07 01:15:33;;;;;;;5.80;4.82;;;24.00;77.90;;;;;;5111531;27;20020;-60
2022/07/07 01:17:59;;;;;;;6.03;5.40;;;24.00;78.40;;;;;;5107002;27;20032;-60
2022/07/07 01:20:26;;;;;;;6.15;5.50;;;24.00;78.60;;;;;;5110461;27;20554;-60
2022/07/07 01:22:55;;;;;;;6.53;5.45;;;23.90;78.90;;;;;;5104753;27;20020;-60
2022/07/07 01:25:22;;;;;;;6.13;5.40;;;23.90;79.20;;;;;;5104337;28;20035;-60
2022/07/07 01:27:49;;;;;;;5.90;5.28;;;23.90;79.40;;;;;;5109746;27;20043;-60
2022/07/07 01:30:16;;;;;;;5.95;5.03;;;23.80;79.80;;;;;;5100694;28;20044;-60
2022/07/07 01:32:41;;;;;;;5.20;4.65;;;23.80;80.10;;;;;;5111847;27;20024;-60
2022/07/07 01:35:10;;;;;;;6.10;5.22;;;23.70;80.30;;;;;;5108755;27;20620;-60
2022/07/07 01:37:36;;;;;;;5.82;5.10;;;23.70;80.50;;;;;;5108859;27;20126;-60
2022/07/07 01:40:03;;;;;;;6.53;5.30;;;23.70;80.50;;;;;;5102393;27;20156;-60
2022/07/07 01:42:29;;;;;;;5.95;5.32;;;23.70;80.60;;;;;;5109180;27;20408;-60
2022/07/07 01:44:55;;;;;;;6.15;5.55;;;23.70;81.20;;;;;;5105999;27;20031;-60
2022/07/07 01:47:22;;;;;;;6.45;5.38;;;23.70;81.30;;;;;;5104320;27;20051;-60
2022/07/07 01:49:48;;;;;;;6.88;5.80;;;23.60;81.50;;;;;;5111053;27;20525;-60
2022/07/07 01:52:14;;;;;;;6.38;5.47;;;23.60;81.40;;;;;;5107193;27;20038;-60
2022/07/07 01:54:40;;;;;;;6.75;6.05;;;23.50;81.50;;;;;;5098942;27;20028;-60
2022/07/07 01:57:07;;;;;;;7.25;5.93;;;23.50;81.70;;;;;;5102838;27;20081;-60
2022/07/07 01:59:34;;;;;;;6.75;6.05;;;23.50;81.90;;;;;;5107641;27;20054;-60
2022/07/07 02:02:00;;;;;;;6.95;6.20;;;23.40;82.00;;;;;;5099124;28;20101;-60
2022/07/07 02:04:25;;;;;;;6.80;5.80;;;23.40;82.40;;;;;;5106687;27;20031;-60
2022/07/07 02:06:51;;;;;;;6.15;5.50;;;23.40;82.40;;;;;;5093205;28;20024;-60
2022/07/07 02:09:17;;;;;;;7.65;6.45;;;23.40;82.60;;;;;;5104033;27;20102;-60
2022/07/07 02:11:43;;;;;;;7.93;6.40;;;23.40;82.70;;;;;;5103268;27;20466;-60
2022/07/07 02:14:09;;;;;;;8.63;6.63;;;23.30;82.70;;;;;;5118916;27;20080;-60
2022/07/07 02:16:36;;;;;;;8.00;6.35;;;23.30;82.90;;;;;;5099573;27;20066;-60
2022/07/07 02:19:06;;;;;;;6.88;6.18;;;23.30;83.10;;;;;;5108580;27;20045;-60
2022/07/07 02:21:32;;;;;;;6.80;6.10;;;23.30;83.20;;;;;;5103246;27;20020;-60
2022/07/07 02:23:58;;;;;;;7.55;5.97;;;23.30;83.30;;;;;;5095388;27;20043;-60
2022/07/07 02:26:25;;;;;;;6.95;6.10;;;23.30;83.30;;;;;;5102514;27;20025;-60
2022/07/07 02:28:51;;;;;;;7.38;6.22;;;23.30;83.30;;;;;;5100528;28;20048;-60
2022/07/07 02:31:17;;;;;;;6.57;5.60;;;23.30;83.40;;;;;;5101600;28;20028;-59
2022/07/07 02:33:44;;;;;;;7.50;5.95;;;23.30;83.50;;;;;;5108706;27;20745;-60
2022/07/07 02:36:10;;;;;;;6.90;6.18;;;23.30;83.60;;;;;;5111178;27;20094;-60
2022/07/07 02:38:37;;;;;;;6.40;5.70;;;23.30;83.50;;;;;;5103448;27;20161;-60
2022/07/07 02:41:04;;;;;;;6.50;5.82;;;23.30;83.50;;;;;;5104171;27;20251;-60
2022/07/07 02:43:30;;;;;;;6.47;5.78;;;23.30;83.30;;;;;;5098724;28;20063;-60
2022/07/07 02:45:56;;;;;;;7.25;5.50;;;23.30;83.20;;;;;;5106869;27;20389;-60
2022/07/07 02:48:23;;;;;;;6.60;5.90;;;23.30;83.30;;;;;;5104877;27;20051;-60
2022/07/07 02:50:50;;;;;;;6.78;5.82;;;23.40;83.50;;;;;;5106380;27;20034;-60
2022/07/07 02:53:16;;;;;;;7.25;6.47;;;23.30;83.10;;;;;;5108538;27;20445;-60
2022/07/07 02:55:43;;;;;;;7.13;5.45;;;23.40;83.10;;;;;;5110509;27;20024;-60
2022/07/07 02:58:10;;;;;;;6.40;5.50;;;23.40;83.10;;;;;;5105771;27;20031;-60
2022/07/07 03:00:36;;;;;;;6.03;5.22;;;23.30;83.00;;;;;;5099115;27;20034;-60
2022/07/07 03:03:07;;;;;;;6.75;5.53;;;23.30;82.90;;;;;;5105357;27;20031;-60
2022/07/07 03:05:34;;;;;;;7.30;6.45;;;23.30;82.80;;;;;;5099079;27;20032;-60
2022/07/07 03:08:00;;;;;;;7.05;5.63;;;23.30;82.70;;;;;;5101070;27;20099;-60
2022/07/07 03:10:26;;;;;;;6.82;6.05;;;23.30;82.60;;;;;;5106094;27;20032;-60
2022/07/07 03:12:52;;;;;;;6.43;5.35;;;23.30;82.70;;;;;;5104841;27;20077;-60
2022/07/07 03:15:19;;;;;;;6.63;5.55;;;23.30;82.60;;;;;;5106960;27;20059;-60
2022/07/07 03:17:45;;;;;;;5.78;5.18;;;23.30;82.60;;;;;;5101504;27;20034;-60
2022/07/07 03:20:13;;;;;;;5.55;4.95;;;23.30;82.60;;;;;;5100285;27;20103;-60
2022/07/07 03:22:39;;;;;;;6.38;5.20;;;23.30;82.40;;;;;;5106872;27;20027;-60
2022/07/07 03:25:06;;;;;;;5.70;5.03;;;23.20;82.30;;;;;;5103423;28;20081;-60
2022/07/07 03:27:32;;;;;;;6.25;5.50;;;23.30;82.20;;;;;;5098925;27;20399;-60
2022/07/07 03:29:58;;;;;;;6.22;5.10;;;23.30;82.10;;;;;;5104401;27;20031;-60
2022/07/07 03:32:24;;;;;;;6.55;5.72;;;23.30;82.10;;;;;;5098081;27;20023;-60
2022/07/07 03:34:49;;;;;;;6.93;6.10;;;23.30;81.90;;;;;;5096026;27;20024;-60
2022/07/07 03:37:15;;;;;;;6.70;5.22;;;23.40;81.90;;;;;;5097553;27;20039;-60
2022/07/07 03:39:41;;;;;;;6.25;5.65;;;23.40;81.90;;;;;;5104127;27;20031;-60
2022/07/07 03:42:07;;;;;;;7.13;6.10;;;23.30;81.80;;;;;;5092745;27;20016;-60
2022/07/07 03:44:32;;;;;;;6.88;5.57;;;23.40;81.80;;;;;;5094315;27;20343;-60
2022/07/07 03:46:58;;;;;;;6.05;5.35;;;23.40;81.70;;;;;;5095059;28;20031;-60
2022/07/07 03:49:24;;;;;;;5.82;5.05;;;23.40;81.60;;;;;;5103102;28;20104;-60
2022/07/07 03:51:49;;;;;;;6.20;5.28;;;23.40;81.50;;;;;;5102127;28;20032;-60
2022/07/07 03:54:15;;;;;;;5.85;5.20;;;23.40;81.50;;;;;;5102723;28;20077;-60
2022/07/07 03:56:41;;;;;;;6.53;5.70;;;23.40;81.50;;;;;;5104719;27;20595;-60
2022/07/07 03:59:07;;;;;;;6.22;5.53;;;23.40;81.30;;;;;;5100981;27;20028;-60
2022/07/07 04:01:32;;;;;;;6.78;5.60;;;23.40;81.20;;;;;;5101537;27;20034;-60
2022/07/07 04:03:58;;;;;;;6.30;5.45;;;23.40;81.10;;;;;;5097672;27;20421;-60
2022/07/07 04:06:24;;;;;;;5.75;5.10;;;23.40;81.10;;;;;;5099270;28;20050;-60
2022/07/07 04:08:50;;;;;;;6.05;5.45;;;23.40;80.90;;;;;;5101807;28;20037;-60
2022/07/07 04:11:16;;;;;;;5.82;5.22;;;23.40;80.90;;;;;;5095906;28;20103;-60
2022/07/07 04:13:42;;;;;;;6.40;5.75;;;23.30;80.70;;;;;;5096560;28;20051;-60
2022/07/07 04:16:08;;;;;;;7.03;5.65;;;23.30;80.70;;;;;;5101627;28;20619;-60
2022/07/07 04:18:34;;;;;;;6.70;5.75;;;23.30;80.60;;;;;;5106396;28;20380;-60
2022/07/07 04:21:00;;;;;;;7.78;5.55;;;23.20;80.60;;;;;;5083031;28;20024;-60
2022/07/07 04:23:26;;;;;;;6.35;5.50;;;23.20;80.60;;;;;;5097638;28;20387;-60
2022/07/07 04:25:53;;;;;;;6.32;5.15;;;23.20;80.80;;;;;;5098155;28;20039;-60
2022/07/07 04:28:19;;;;;;;5.65;4.78;;;23.20;80.70;;;;;;5100783;28;20044;-60
2022/07/07 04:30:45;;;;;;;6.55;5.30;;;23.10;80.70;;;;;;5099471;28;20081;-61
2022/07/07 04:33:11;;;;;;;6.60;5.05;;;23.10;80.70;;;;;;5105314;28;21407;-61
2022/07/07 04:35:37;;;;;;;5.97;5.00;;;23.10;80.70;;;;;;5103474;28;20024;-61
2022/07/07 04:38:05;;;;;;;5.25;4.72;;;23.10;80.80;;;;;;5101454;28;20806;-61
2022/07/07 04:40:31;;;;;;;7.32;5.53;;;23.00;80.80;;;;;;5105277;28;20027;-62
2022/07/07 04:42:57;;;;;;;4.95;4.45;;;23.00;80.80;;;;;;5100768;28;20518;-64
2022/07/07 04:45:23;;;;;;;5.30;4.78;;;23.00;80.80;;;;;;5087349;28;20031;-61
2022/07/07 04:47:48;;;;;;;5.47;4.75;;;23.00;81.00;;;;;;5100702;28;20143;-61
2022/07/07 04:50:14;;;;;;;5.63;4.88;;;23.00;80.90;;;;;;5101288;28;20036;-61
2022/07/07 04:52:40;;;;;;;5.28;4.78;;;22.90;80.80;;;;;;5096430;28;20020;-61
2022/07/07 04:55:07;;;;;;;4.63;4.15;;;22.90;80.90;;;;;;5092854;28;20487;-61
2022/07/07 04:57:34;;;;;;;5.50;4.45;;;22.90;80.70;;;;;;5094659;28;20476;-61
2022/07/07 05:00:00;;;;;;;5.00;4.40;;;22.80;80.50;;;;;;5098593;28;20083;-61
2022/07/07 05:02:25;;;;;;;5.10;4.10;;;22.80;80.60;;;;;;5082813;28;20028;-61
2022/07/07 05:04:51;;;;;;;4.45;4.00;;;22.80;80.70;;;;;;5105540;28;20016;-61
2022/07/07 05:07:18;;;;;;;4.57;3.85;;;22.70;80.80;;;;;;5102116;28;20020;-61
2022/07/07 05:09:44;;;;;;;4.97;4.47;;;22.70;80.70;;;;;;5103320;28;20023;-61
2022/07/07 05:12:10;;;;;;;4.28;3.88;;;22.70;80.60;;;;;;5098674;28;20390;-61
2022/07/07 05:14:35;;;;;;;4.65;3.92;;;22.70;80.50;;;;;;5100030;28;20032;-61
2022/07/07 05:17:01;;;;;;;4.65;3.92;;;22.60;80.50;;;;;;5098257;28;20137;-60
2022/07/07 05:19:27;;;;;;;4.63;4.13;;;22.60;80.50;;;;;;5099002;28;20032;-61
2022/07/07 05:21:53;;;;;;;4.45;3.72;;;22.60;80.50;;;;;;5102602;28;20110;-61
2022/07/07 05:24:20;;;;;;;4.55;3.80;;;22.60;80.20;;;;;;5098913;28;20084;-60
2022/07/07 05:26:46;;;;;;;3.90;3.50;;;22.50;80.10;;;;;;5099791;28;20023;-61
2022/07/07 05:29:12;;;;;;;3.78;3.38;;;22.50;80.00;;;;;;5101880;27;20511;-61
2022/07/07 05:31:38;;;;;;;3.78;3.25;;;22.40;80.00;;;;;;5100122;28;20043;-61
2022/07/07 05:34:03;;;;;;;4.10;3.50;;;22.40;79.90;;;;;;5103473;27;20031;-60
2022/07/07 05:36:30;;;;;;;3.90;3.50;;;22.30;79.90;;;;;;5098037;27;20027;-61
2022/07/07 05:38:56;;;;;;;3.75;3.30;;;22.30;79.90;;;;;;5100648;27;20032;-61
2022/07/07 05:41:22;;;;;;;4.15;3.42;;;22.30;79.70;;;;;;5092616;27;20120;-61
2022/07/07 05:43:48;;;;;;;4.32;3.60;;;22.20;79.70;;;;;;5105429;27;20493;-61
2022/07/07 05:46:13;;;;;;;3.17;2.88;;;22.20;79.60;;;;;;5101794;27;20032;-61
2022/07/07 05:48:39;;;;;;;3.88;3.33;;;22.20;79.80;;;;;;5100403;27;20048;-60
2022/07/07 05:51:05;;;;;;;3.80;3.40;;;22.20;79.80;;;;;;5111979;27;20434;-61
2022/07/07 05:53:31;;;;;;;3.88;3.42;;;22.20;79.80;;;;;;5101475;27;20040;-61
2022/07/07 05:55:57;;;;;;;4.40;3.50;;;22.20;80.30;;;;;;5099949;27;20027;-61
2022/07/07 05:58:23;;;;;;;4.28;3.80;;;22.20;79.60;;;;;;5094309;27;20044;-60
2022/07/07 06:00:48;;;;;;;3.83;3.45;;;22.20;79.50;;;;;;5085776;28;20078;-60
2022/07/07 06:03:14;;;;;;;4.18;3.78;;;22.20;79.60;;;;;;5088830;28;20498;-60
2022/07/07 06:05:41;;;;;;;4.22;3.80;;;22.20;79.50;;;;;;5089101;27;20031;-61
2022/07/07 06:08:08;;;;;;;4.78;3.90;;;22.10;79.60;;;;;;5091454;27;20051;-61
2022/07/07 06:10:34;;;;;;;4.35;3.60;;;22.10;79.50;;;;;;5093853;27;20764;-60
2022/07/07 06:13:00;;;;;;;4.45;3.72;;;22.10;79.60;;;;;;5095654;28;20032;-60
2022/07/07 06:15:27;;;;;;;4.82;3.95;;;22.10;79.70;;;;;;5092179;27;20027;-61
2022/07/07 06:17:53;;;;;;;4.32;3.60;;;22.10;79.90;;;;;;5094102;28;20034;-61
2022/07/07 06:20:19;;;;;;;4.15;3.75;;;22.10;79.80;;;;;;5088230;27;20039;-60
2022/07/07 06:22:45;;;;;;;4.35;3.90;;;22.10;79.90;;;;;;5088540;28;20024;-60
2022/07/07 06:25:11;;;;;;;4.65;4.00;;;22.00;79.90;;;;;;5085194;27;20047;-61
2022/07/07 06:27:37;;;;;;;4.43;4.03;;;22.10;79.70;;;;;;5085405;28;20031;-61
2022/07/07 06:30:04;;;;;;;4.72;4.18;;;22.10;79.70;;;;;;5087950;27;20042;-60
2022/07/07 06:32:30;;;;;;;5.55;4.13;;;22.00;79.80;;;;;;5087365;28;20491;-61
2022/07/07 06:34:55;;;;;;;4.38;3.97;;;22.00;80.00;;;;;;5085395;27;20031;-61
2022/07/07 06:37:21;;;;;;;4.78;4.22;;;22.10;80.10;;;;;;5083837;27;20042;-61
2022/07/07 06:39:47;;;;;;;4.97;4.13;;;22.10;80.00;;;;;;5078898;28;20027;-61
2022/07/07 06:42:12;;;;;;;4.43;3.80;;;22.10;80.50;;;;;;5084701;27;20483;-61
2022/07/07 06:44:38;;;;;;;4.65;4.20;;;22.10;79.90;;;;;;5088045;27;20059;-60
2022/07/07 06:47:04;;;;;;;4.68;4.20;;;22.10;79.90;;;;;;5091907;27;20040;-60
2022/07/07 06:49:30;;;;;;;4.50;4.10;;;22.10;79.90;;;;;;5097585;27;20046;-60
2022/07/07 06:51:55;;;;;;;5.00;4.40;;;22.10;79.90;;;;;;5087271;27;20051;-60
2022/07/07 06:54:21;;;;;;;5.10;4.60;;;22.10;79.80;;;;;;5094802;27;20027;-60
2022/07/07 06:56:47;;;;;;;4.93;4.43;;;22.20;79.80;;;;;;5092532;27;20047;-60
2022/07/07 06:59:15;;;;;;;4.35;3.95;;;22.20;79.60;;;;;;5091626;27;20039;-60
2022/07/07 07:01:41;;;;;;;4.85;4.18;;;22.20;79.60;;;;;;5081784;27;20031;-61
2022/07/07 07:04:09;;;;;;;5.68;4.18;;;22.20;79.70;;;;;;5075748;28;21550;-60
2022/07/07 07:06:35;;;;;;;5.00;4.20;;;22.20;79.60;;;;;;5077394;27;20043;-61
2022/07/07 07:09:01;;;;;;;4.15;3.75;;;22.20;79.40;;;;;;5082492;27;20024;-59
2022/07/07 07:11:28;;;;;;;4.10;3.70;;;22.20;79.30;;;;;;5084187;28;20115;-60
2022/07/07 07:13:56;;;;;;;4.43;3.75;;;22.20;79.20;;;;;;5085193;27;20042;-60
2022/07/07 07:16:21;;;;;;;4.05;3.60;;;22.20;79.10;;;;;;5081254;28;20154;-60
2022/07/07 07:18:47;;;;;;;4.72;3.90;;;22.30;78.90;;;;;;5081310;27;20040;-61
2022/07/07 07:21:13;;;;;;;4.38;3.70;;;22.30;78.90;;;;;;5080809;27;20487;-62
2022/07/07 07:23:38;;;;;;;3.60;3.30;;;22.40;78.50;;;;;;5085981;27;20039;-60
2022/07/07 07:26:06;;;;;;;3.50;3.20;;;22.50;78.30;;;;;;5090404;27;20038;-61
2022/07/07 07:28:31;;;;;;;3.50;3.20;;;22.50;78.00;;;;;;5085524;27;20426;-61
2022/07/07 07:30:57;;;;;;;3.40;3.10;;;22.60;77.90;;;;;;5077884;27;20032;-61
2022/07/07 07:33:23;;;;;;;3.47;3.17;;;22.60;77.40;;;;;;5070454;27;21570;-60
2022/07/07 07:35:49;;;;;;;3.42;3.13;;;22.60;77.20;;;;;;5077883;27;20043;-60
2022/07/07 07:38:15;;;;;;;4.10;3.65;;;22.60;77.10;;;;;;5079054;27;20039;-60
2022/07/07 07:40:40;;;;;;;3.65;3.15;;;22.70;77.20;;;;;;5078259;27;20453;-60
2022/07/07 07:43:06;;;;;;;4.00;3.30;;;22.70;77.20;;;;;;5074425;27;20764;-59
2022/07/07 07:45:32;;;;;;;3.50;3.20;;;22.70;77.30;;;;;;5075223;27;20032;-60
2022/07/07 07:47:59;;;;;;;3.83;3.38;;;22.70;77.00;;;;;;5080557;27;20071;-60
2022/07/07 07:50:25;;;;;;;3.70;3.30;;;22.80;76.90;;;;;;5080892;27;20032;-60
2022/07/07 07:52:51;;;;;;;3.97;3.50;;;22.80;76.60;;;;;;5076107;27;20036;-60
2022/07/07 07:55:18;;;;;;;3.42;3.13;;;22.90;76.50;;;;;;5074862;27;20030;-60
2022/07/07 07:57:45;;;;;;;3.63;3.33;;;23.00;76.10;;;;;;5075801;27;20019;-60
2022/07/07 08:00:13;;;;;;;3.75;3.40;;;23.00;75.80;;;;;;5077185;27;20027;-60
2022/07/07 08:02:39;;;;;;;3.38;3.08;;;23.00;75.40;;;;;;5081807;28;20031;-60
2022/07/07 08:05:06;;;;;;;3.72;3.30;;;23.00;75.40;;;;;;5088745;27;20090;-60
2022/07/07 08:07:32;;;;;;;3.80;3.40;;;23.00;75.10;;;;;;5077177;28;20058;-59
2022/07/07 08:09:59;;;;;;;3.50;3.03;;;23.10;75.40;;;;;;5071737;28;20069;-60
2022/07/07 08:12:25;;;;;;;3.28;2.97;;;23.10;75.30;;;;;;5074768;28;20046;-59
2022/07/07 08:14:51;;;;;;;3.15;2.85;;;23.10;75.20;;;;;;5081417;28;20039;-60
2022/07/07 08:17:17;;;;;;;3.53;3.22;;;23.20;75.40;;;;;;5076334;28;20388;-60
2022/07/07 08:19:43;;;;;;;3.22;2.92;;;23.20;75.30;;;;;;5074480;28;20783;-60
2022/07/07 08:22:10;;;;;;;3.70;2.88;;;23.30;75.00;;;;;;5078648;28;23079;-59
2022/07/07 08:24:36;;;;;;;3.30;3.00;;;23.30;74.80;;;;;;5079237;28;20028;-58
2022/07/07 08:27:03;;;;;;;4.22;2.97;;;23.40;74.70;;;;;;5070931;28;20043;-59
2022/07/07 08:29:29;;;;;;;3.10;2.80;;;23.40;74.60;;;;;;5070309;28;20036;-61
2022/07/07 08:31:55;;;;;;;3.67;3.13;;;23.50;74.70;;;;;;5067271;28;20051;-59
2022/07/07 08:34:21;;;;;;;2.85;2.63;;;23.50;74.50;;;;;;5074403;28;20035;-60
2022/07/07 08:36:46;;;;;;;3.25;2.90;;;23.60;74.30;;;;;;5068716;28;20024;-59
2022/07/07 08:39:13;;;;;;;2.92;2.70;;;23.60;74.20;;;;;;5073714;28;20024;-59
2022/07/07 08:41:39;;;;;;;6.32;3.35;;;23.70;74.00;;;;;;5079279;28;20492;-59
2022/07/07 08:44:06;;;;;;;3.17;2.55;;;23.70;73.70;;;;;;5078567;28;20200;-59
2022/07/07 08:46:32;;;;;;;2.90;2.70;;;23.70;73.40;;;;;;5080199;28;20020;-58
2022/07/07 08:48:57;;;;;;;3.35;3.05;;;23.70;73.30;;;;;;5080327;28;20066;-60
2022/07/07 08:51:24;;;;;;;2.90;2.70;;;23.80;73.00;;;;;;5085845;28;20096;-60
2022/07/07 08:53:51;;;;;;;2.97;2.67;;;23.80;72.80;;;;;;5081323;28;20028;-59
2022/07/07 08:56:18;;;;;;;3.13;2.83;;;23.80;72.70;;;;;;5069050;28;20020;-60
2022/07/07 08:58:45;;;;;;;3.28;2.97;;;23.90;72.80;;;;;;5068586;28;20426;-60
2022/07/07 09:01:11;;;;;;;2.80;2.60;;;23.90;72.60;;;;;;5068009;28;20028;-60
2022/07/07 09:03:37;;;;;;;2.70;2.50;;;23.90;72.60;;;;;;5071417;27;20046;-60
2022/07/07 09:06:03;;;;;;;4.05;3.03;;;24.00;72.30;;;;;;5079802;27;20540;-60
2022/07/07 09:08:31;;;;;;;3.20;2.75;;;24.10;72.40;;;;;;5081939;27;20035;-60
2022/07/07 09:10:57;;;;;;;2.63;2.42;;;24.20;72.10;;;;;;5074106;27;20202;-61
2022/07/07 09:13:31;;;;;;;2.75;2.55;;;24.30;72.50;;;;;;5073156;27;20042;-60
2022/07/07 09:16:04;;;;;;;2.85;2.65;;;24.40;71.50;;;;;;5072330;27;20620;-58
2022/07/07 09:18:34;;;;;;;2.55;2.35;;;24.40;71.30;;;;;;5073178;27;20036;-61
2022/07/07 09:21:02;;;;;;;2.72;2.53;;;24.50;71.00;;;;;;5080057;27;20059;-59
2022/07/07 09:23:28;;;;;;;2.33;2.20;;;24.50;71.00;;;;;;5083867;27;20120;-59
2022/07/07 09:25:54;;;;;;;2.67;2.47;;;24.60;71.30;;;;;;5077813;27;20020;-61
2022/07/07 09:28:20;;;;;;;2.75;2.55;;;24.60;71.00;;;;;;5069225;27;20036;-61
2022/07/07 09:30:47;;;;;;;2.58;2.38;;;24.70;70.80;;;;;;5076627;27;21665;-61
2022/07/07 09:33:15;;;;;;;3.13;2.83;;;24.80;70.60;;;;;;5065866;27;20490;-60
2022/07/07 09:38:30;;;;;;;2.63;2.42;;;24.90;70.30;;;;;;5071471;27;20046;-60
2022/07/07 09:40:58;;;;;;;3.60;2.67;;;24.90;70.20;;;;;;5067430;27;20027;-59
2022/07/07 09:43:24;;;;;;;2.70;2.50;;;24.90;70.00;;;;;;5067891;27;20230;-60
2022/07/07 09:46:16;;;;;;;2.80;2.60;;;24.90;69.90;;;;;;5070745;27;20028;-60
2022/07/07 09:48:48;;;;;;;2.53;2.40;;;24.90;69.60;;;;;;5071013;27;20756;-61
2022/07/07 09:51:29;;;;;;;2.50;2.30;;;24.90;69.60;;;;;;5076769;27;20651;-62
2022/07/07 09:54:03;;;;;;;5.25;2.60;;;25.00;69.50;;;;;;5079722;27;20130;-61
2022/07/07 09:56:30;;;;;;;2.30;2.20;;;25.00;69.40;;;;;;5076093;27;20031;-61
2022/07/07 09:58:57;;;;;;;2.20;2.10;;;25.00;69.40;;;;;;5074122;27;20123;-61
2022/07/07 10:01:32;;;;;;;2.42;2.30;;;25.00;69.10;;;;;;5069857;27;20036;-61
2022/07/07 10:04:06;;;;;;;2.15;2.05;;;25.00;69.90;;;;;;5064590;27;20055;-62
2022/07/07 10:06:34;;;;;;;2.40;2.17;;;25.00;69.30;;;;;;5076719;27;20062;-61
2022/07/07 10:09:03;;;;;;;2.97;2.42;;;25.00;69.10;;;;;;5075220;27;20035;-59
2022/07/07 10:11:55;;;;;;;2.78;2.58;;;25.00;69.00;;;;;;5066355;27;20730;-61
2022/07/07 10:14:23;;;;;;;2.63;2.42;;;25.00;68.90;;;;;;5064141;27;20084;-60
2022/07/07 10:16:51;;;;;;;2.70;2.50;;;24.90;68.80;;;;;;5066158;27;20031;-61
2022/07/07 10:19:19;;;;;;;2.88;2.67;;;25.00;68.90;;;;;;5054715;27;20052;-60
2022/07/07 10:21:47;;;;;;;2.85;2.65;;;24.90;68.80;;;;;;5061006;27;20720;-60
2022/07/07 10:24:15;;;;;;;3.63;3.00;;;24.90;68.70;;;;;;5061494;27;20999;-60
2022/07/07 10:26:52;;;;;;;2.70;2.50;;;24.90;68.60;;;;;;5052788;27;20032;-60
2022/07/07 10:29:38;;;;;;;2.78;2.58;;;24.80;68.60;;;;;;5065016;27;20047;-60
2022/07/07 10:32:04;;;;;;;2.85;2.60;;;24.80;68.50;;;;;;5068160;28;20032;-60
2022/07/07 10:34:33;;;;;;;2.90;2.60;;;24.80;68.80;;;;;;5068313;27;20036;-60
2022/07/07 10:37:01;;;;;;;2.80;2.60;;;24.80;68.70;;;;;;5073929;27;20027;-60
2022/07/07 10:39:30;;;;;;;2.55;2.35;;;24.70;68.60;;;;;;5076554;27;20039;-60
2022/07/07 10:42:06;;;;;;;2.90;2.70;;;24.70;68.70;;;;;;5065671;27;20031;-60
2022/07/07 10:44:35;;;;;;;3.05;2.80;;;24.70;68.60;;;;;;5068911;28;20032;-61
2022/07/07 10:47:24;;;;;;;2.80;2.60;;;24.70;68.80;;;;;;5064423;28;20032;-61
2022/07/07 10:49:52;;;;;;;3.42;2.90;;;24.70;68.60;;;;;;5066619;27;20530;-60
2022/07/07 10:52:21;;;;;;;3.22;2.95;;;24.70;68.70;;;;;;5061395;28;21080;-60
2022/07/07 10:54:54;;;;;;;3.22;2.92;;;24.70;68.70;;;;;;5068428;27;20066;-61
2022/07/07 10:57:22;;;;;;;3.38;3.08;;;24.60;68.60;;;;;;5068784;27;20023;-61
2022/07/07 11:00:01;;;;;;;3.13;2.83;;;24.60;68.80;;;;;;5065721;27;20043;-61
2022/07/07 11:02:30;;;;;;;3.00;2.80;;;24.60;68.90;;;;;;5064816;27;20024;-61
2022/07/07 11:04:57;;;;;;;3.17;2.88;;;24.60;68.80;;;;;;5073010;28;20036;-62
2022/07/07 11:07:24;;;;;;;2.80;2.60;;;24.50;68.60;;;;;;5072456;27;20032;-61
2022/07/07 11:10:06;;;;;;;2.92;2.72;;;24.50;68.80;;;;;;5067540;27;20035;-61
2022/07/07 11:12:53;;;;;;;3.40;3.10;;;24.50;68.70;;;;;;5070639;27;20789;-61
2022/07/07 11:15:21;;;;;;;3.38;3.08;;;24.40;68.70;;;;;;5068639;27;20035;-62
2022/07/07 11:17:53;;;;;;;2.88;2.67;;;24.30;68.90;;;;;;5083742;27;20032;-60
2022/07/07 11:20:23;;;;;;;3.33;3.08;;;24.30;69.20;;;;;;5065670;27;20032;-62
2022/07/07 11:22:51;;;;;;;3.20;2.90;;;24.30;69.10;;;;;;5074644;28;20446;-61
2022/07/07 11:25:24;;;;;;;3.25;2.95;;;24.20;69.20;;;;;;5071725;28;20045;-59
2022/07/07 11:27:51;;;;;;;3.90;2.97;;;24.20;69.10;;;;;;5055237;28;20827;-61
2022/07/07 11:30:24;;;;;;;3.20;2.90;;;24.20;69.30;;;;;;5072766;28;20502;-62
2022/07/07 11:32:51;;;;;;;3.05;2.50;;;24.20;69.50;;;;;;5067144;27;20657;-59
2022/07/07 11:35:17;;;;;;;2.85;2.65;;;24.20;69.60;;;;;;5072448;27;20126;-61
2022/07/07 11:37:45;;;;;;;3.28;2.97;;;24.20;69.80;;;;;;5068491;27;20027;-60
2022/07/07 11:40:14;;;;;;;3.08;2.78;;;24.30;69.90;;;;;;5079562;27;20167;-60
2022/07/07 11:42:43;;;;;;;3.00;2.80;;;24.30;69.90;;;;;;5074045;27;21215;-61
2022/07/07 11:45:23;;;;;;;3.75;3.20;;;24.30;69.90;;;;;;5075275;27;20066;-61
2022/07/07 11:47:50;;;;;;;3.35;3.05;;;24.30;69.80;;;;;;5072350;27;20132;-60
2022/07/07 11:50:16;;;;;;;3.42;3.13;;;24.30;69.70;;;;;;5071551;28;20129;-60
2022/07/07 11:52:54;;;;;;;3.70;3.40;;;24.40;69.60;;;;;;5064848;28;20062;-60
2022/07/07 11:55:20;;;;;;;3.90;3.50;;;24.40;69.40;;;;;;5067587;27;20027;-61
2022/07/07 11:57:50;;;;;;;3.35;3.05;;;24.40;69.30;;;;;;5061850;28;20032;-60
2022/07/07 12:00:19;;;;;;;3.50;3.20;;;24.40;69.10;;;;;;5069881;27;20761;-60
2022/07/07 12:02:46;;;;;;;4.03;3.63;;;24.40;69.20;;;;;;5056668;28;20059;-60
2022/07/07 12:05:12;;;;;;;4.68;3.45;;;24.40;69.00;;;;;;5061595;27;20138;-61
2022/07/07 12:07:41;;;;;;;4.00;3.60;;;24.40;68.90;;;;;;5067904;27;20119;-61
2022/07/07 12:10:19;;;;;;;3.47;3.17;;;24.40;69.10;;;;;;5070343;27;20027;-60
2022/07/07 12:13:01;;;;;;;3.05;2.85;;;24.30;69.00;;;;;;5067167;28;20023;-59
2022/07/07 12:15:29;;;;;;;4.00;3.40;;;24.30;68.90;;;;;;5069771;28;20034;-61
2022/07/07 12:17:57;;;;;;;3.35;3.05;;;24.40;68.80;;;;;;5076612;28;20024;-61
2022/07/07 12:20:24;;;;;;;3.60;3.30;;;24.30;68.80;;;;;;5068676;28;20376;-60
2022/07/07 12:22:56;;;;;;;3.72;3.38;;;24.30;68.60;;;;;;5061878;28;20089;-60
2022/07/07 12:25:27;;;;;;;3.28;3.00;;;24.30;68.70;;;;;;5068218;28;20035;-61
2022/07/07 12:28:02;;;;;;;3.83;3.53;;;24.20;68.70;;;;;;5069233;28;20384;-60
2022/07/07 12:30:52;;;;;;;3.97;3.65;;;24.20;68.90;;;;;;5069303;28;20040;-61
2022/07/07 12:33:30;;;;;;;3.83;3.53;;;24.20;69.20;;;;;;5067169;28;20040;-61
2022/07/07 12:36:09;;;;;;;4.53;4.13;;;24.10;69.50;;;;;;5068262;28;20463;-60
2022/07/07 12:38:38;;;;;;;4.30;3.90;;;24.10;69.70;;;;;;5072437;28;20038;-60
2022/07/07 12:41:04;;;;;;;4.32;3.83;;;24.00;69.70;;;;;;5072139;27;20046;-61
2022/07/07 12:43:33;;;;;;;4.70;4.18;;;24.00;69.90;;;;;;5078347;27;24127;-61
2022/07/07 12:46:06;;;;;;;3.40;3.10;;;23.90;70.10;;;;;;5073842;27;20077;-60
2022/07/07 12:48:41;;;;;;;3.55;3.25;;;23.90;70.20;;;;;;5080451;27;20047;-60
2022/07/07 12:51:07;;;;;;;3.50;3.20;;;23.80;70.40;;;;;;5069526;27;20031;-61
2022/07/07 12:53:36;;;;;;;3.63;3.30;;;23.80;70.50;;;;;;5074732;27;20135;-61